Deerfield Beach, FL

4:18 AM EST on January 20, 2017 (GMT -0500)
Shorewood ,DEERFIELD Beach,Fl | | Change Station

Elev 20 ft 26.30 °N, 80.10 °W | Updated 30 seconds ago

Partly Cloudy
Partly Cloudy
61.5 °F
Feels Like 61.5 °F
N
0.0
Wind Variable Wind from East

Today
High -- | Low -- °F
--% Chance of Precip.
Yesterday
High -- | Low -- °F
Precip. -- in
Pressure 30.00 in
Visibility 7.0 miles
Clouds Clear
Dew Point 57 °F
Humidity 86%
Rainfall 0.00 in
Snow Depth Not available.
7:08 AM 5:54 PM
Last Quarter, 46% visible
METAR KPMP 200853Z AUTO 33003KT 7SM CLR 18/17 A3000 RMK AO2 SLP158 T01830167 53007
Pressure 30.00 in
Visibility 7.0 miles
Clouds Clear
Dew Point 57 °F
Humidity 86%
Rainfall 0.00 in
Snow Depth Not available.
7:08 AM 5:54 PM
Last Quarter, 46% visible
METAR KPMP 200853Z AUTO 33003KT 7SM CLR 18/17 A3000 RMK AO2 SLP158 T01830167 53007

Get Your Daily Forecast Email!

Thanks for signing up!

Be on the lookout for a verification email in your inbox.

You'll start receiving the daily forecast at 8 AM.

×

10-Day Weather Forecast

Almanac

Astronomy

Jan. 20, 2017 Rise Set
Actual Time
Civil Twilight
Nautical Twilight
Astronomical Twilight
Moon
Length of Visible Light
Length of Day
Tomorrow will be .
, % of the Moon is Illuminated

Today's Extremes

State Highs State Lows

Community

WunderPhotos

Upload Photos

1,962,540 photos uploaded!

WunderBlog® & News

Nearby

Air Quality

  Air Quality AQ Index Pollutant
Not available.

Snow Depth

Station Depth Elevation

Earthquake Activity

City Distance Mag. Time & Date
Minimum magnitude displayed is 2.5.

Coastal Water Temperatures

Place Temperature

Stations

Nearby Weather Stations

Station Location Temp. Windchill Dew Point Humidity Wind Precip. Elev Updated Type
                   

Watches & Warnings

There are currently no watches in effect.